sensor_id;sensor_type;location;lat;lon;timestamp;P1;durP1;ratioP1;P2;durP2;ratioP2
74624;SDS011;63131;52.298;8.056;2023-09-18T00:01:40;8.43;;;3.75;;
74624;SDS011;63131;52.298;8.056;2023-09-18T00:04:07;7.70;;;3.53;;
74624;SDS011;63131;52.298;8.056;2023-09-18T00:06:32;8.75;;;4.20;;
74624;SDS011;63131;52.298;8.056;2023-09-18T00:08:58;8.45;;;4.03;;
74624;SDS011;63131;52.298;8.056;2023-09-18T00:11:23;9.20;;;4.10;;
74624;SDS011;63131;52.298;8.056;2023-09-18T00:13:49;8.70;;;3.72;;
74624;SDS011;63131;52.298;8.056;2023-09-18T00:16:14;8.45;;;3.65;;
74624;SDS011;63131;52.298;8.056;2023-09-18T00:18:42;8.02;;;3.67;;
74624;SDS011;63131;52.298;8.056;2023-09-18T00:21:09;9.30;;;3.58;;
74624;SDS011;63131;52.298;8.056;2023-09-18T00:23:36;8.70;;;4.00;;
74624;SDS011;63131;52.298;8.056;2023-09-18T00:26:03;8.15;;;3.92;;
74624;SDS011;63131;52.298;8.056;2023-09-18T00:28:28;8.10;;;4.03;;
74624;SDS011;63131;52.298;8.056;2023-09-18T00:30:54;8.70;;;4.60;;
74624;SDS011;63131;52.298;8.056;2023-09-18T00:33:19;7.88;;;3.40;;
74624;SDS011;63131;52.298;8.056;2023-09-18T00:35:46;10.57;;;4.25;;
74624;SDS011;63131;52.298;8.056;2023-09-18T00:38:12;8.80;;;4.70;;
74624;SDS011;63131;52.298;8.056;2023-09-18T00:40:38;9.73;;;3.83;;
74624;SDS011;63131;52.298;8.056;2023-09-18T00:43:04;8.57;;;3.85;;
74624;SDS011;63131;52.298;8.056;2023-09-18T00:45:29;8.60;;;3.67;;
74624;SDS011;63131;52.298;8.056;2023-09-18T00:47:55;10.60;;;4.00;;
74624;SDS011;63131;52.298;8.056;2023-09-18T00:50:20;9.10;;;3.83;;
74624;SDS011;63131;52.298;8.056;2023-09-18T00:52:46;8.52;;;4.03;;
74624;SDS011;63131;52.298;8.056;2023-09-18T00:55:14;7.97;;;3.85;;
74624;SDS011;63131;52.298;8.056;2023-09-18T00:57:40;8.85;;;3.63;;
74624;SDS011;63131;52.298;8.056;2023-09-18T01:00:06;8.20;;;3.50;;
74624;SDS011;63131;52.298;8.056;2023-09-18T01:02:32;12.15;;;4.15;;
74624;SDS011;63131;52.298;8.056;2023-09-18T01:04:58;7.72;;;3.75;;
74624;SDS011;63131;52.298;8.056;2023-09-18T01:07:23;7.30;;;3.30;;
74624;SDS011;63131;52.298;8.056;2023-09-18T01:09:49;8.85;;;4.13;;
74624;SDS011;63131;52.298;8.056;2023-09-18T01:12:18;8.23;;;4.13;;
74624;SDS011;63131;52.298;8.056;2023-09-18T01:15:07;8.77;;;4.05;;
74624;SDS011;63131;52.298;8.056;2023-09-18T01:17:36;10.05;;;4.10;;
74624;SDS011;63131;52.298;8.056;2023-09-18T01:20:03;9.45;;;4.22;;
74624;SDS011;63131;52.298;8.056;2023-09-18T01:22:30;10.48;;;4.57;;
74624;SDS011;63131;52.298;8.056;2023-09-18T01:24:56;9.52;;;4.40;;
74624;SDS011;63131;52.298;8.056;2023-09-18T01:27:22;10.18;;;4.75;;
74624;SDS011;63131;52.298;8.056;2023-09-18T01:29:47;9.65;;;4.30;;
74624;SDS011;63131;52.298;8.056;2023-09-18T01:32:14;9.48;;;4.82;;
74624;SDS011;63131;52.298;8.056;2023-09-18T01:34:47;9.93;;;4.88;;
74624;SDS011;63131;52.298;8.056;2023-09-18T01:37:14;10.20;;;4.95;;
74624;SDS011;63131;52.298;8.056;2023-09-18T01:39:40;9.80;;;5.15;;
74624;SDS011;63131;52.298;8.056;2023-09-18T01:42:06;11.05;;;5.15;;
74624;SDS011;63131;52.298;8.056;2023-09-18T01:44:34;10.80;;;4.97;;
74624;SDS011;63131;52.298;8.056;2023-09-18T01:47:06;10.73;;;5.35;;
74624;SDS011;63131;52.298;8.056;2023-09-18T01:49:37;11.57;;;5.63;;
74624;SDS011;63131;52.298;8.056;2023-09-18T01:52:03;10.65;;;5.20;;
74624;SDS011;63131;52.298;8.056;2023-09-18T01:54:30;10.75;;;5.15;;
74624;SDS011;63131;52.298;8.056;2023-09-18T01:56:57;11.30;;;5.25;;
74624;SDS011;63131;52.298;8.056;2023-09-18T01:59:23;11.20;;;5.55;;
74624;SDS011;63131;52.298;8.056;2023-09-18T02:01:49;10.88;;;5.65;;
74624;SDS011;63131;52.298;8.056;2023-09-18T02:04:15;9.75;;;5.20;;
74624;SDS011;63131;52.298;8.056;2023-09-18T02:06:41;12.40;;;5.35;;
74624;SDS011;63131;52.298;8.056;2023-09-18T02:09:06;9.90;;;5.03;;
74624;SDS011;63131;52.298;8.056;2023-09-18T02:11:38;10.85;;;5.50;;
74624;SDS011;63131;52.298;8.056;2023-09-18T02:14:05;13.05;;;5.40;;
74624;SDS011;63131;52.298;8.056;2023-09-18T02:16:34;9.27;;;4.75;;
74624;SDS011;63131;52.298;8.056;2023-09-18T02:19:01;12.38;;;5.35;;
74624;SDS011;63131;52.298;8.056;2023-09-18T02:21:29;10.93;;;5.43;;
74624;SDS011;63131;52.298;8.056;2023-09-18T02:23:56;9.88;;;4.63;;
74624;SDS011;63131;52.298;8.056;2023-09-18T02:26:22;11.02;;;5.18;;
74624;SDS011;63131;52.298;8.056;2023-09-18T02:28:48;8.85;;;4.70;;
74624;SDS011;63131;52.298;8.056;2023-09-18T02:31:14;9.77;;;4.93;;
74624;SDS011;63131;52.298;8.056;2023-09-18T02:33:41;12.13;;;4.90;;
74624;SDS011;63131;52.298;8.056;2023-09-18T02:36:11;9.57;;;4.65;;
74624;SDS011;63131;52.298;8.056;2023-09-18T02:38:36;9.73;;;4.70;;
74624;SDS011;63131;52.298;8.056;2023-09-18T02:41:01;10.18;;;4.68;;
74624;SDS011;63131;52.298;8.056;2023-09-18T02:43:27;9.10;;;4.43;;
74624;SDS011;63131;52.298;8.056;2023-09-18T02:45:52;10.30;;;5.20;;
74624;SDS011;63131;52.298;8.056;2023-09-18T02:48:18;10.90;;;4.80;;
74624;SDS011;63131;52.298;8.056;2023-09-18T02:50:43;9.30;;;4.25;;
74624;SDS011;63131;52.298;8.056;2023-09-18T02:53:22;11.55;;;5.10;;
74624;SDS011;63131;52.298;8.056;2023-09-18T02:55:52;14.05;;;5.05;;
74624;SDS011;63131;52.298;8.056;2023-09-18T02:58:18;10.68;;;4.65;;
74624;SDS011;63131;52.298;8.056;2023-09-18T03:00:48;9.30;;;4.82;;
74624;SDS011;63131;52.298;8.056;2023-09-18T03:03:14;8.77;;;4.57;;
74624;SDS011;63131;52.298;8.056;2023-09-18T03:05:41;11.55;;;5.55;;
74624;SDS011;63131;52.298;8.056;2023-09-18T03:08:07;10.07;;;4.85;;
74624;SDS011;63131;52.298;8.056;2023-09-18T03:10:36;10.00;;;5.03;;
74624;SDS011;63131;52.298;8.056;2023-09-18T03:13:04;11.73;;;5.32;;
74624;SDS011;63131;52.298;8.056;2023-09-18T03:15:30;11.52;;;5.10;;
74624;SDS011;63131;52.298;8.056;2023-09-18T03:17:59;10.52;;;4.95;;
74624;SDS011;63131;52.298;8.056;2023-09-18T03:20:25;9.63;;;4.57;;
74624;SDS011;63131;52.298;8.056;2023-09-18T03:22:53;9.57;;;5.38;;
74624;SDS011;63131;52.298;8.056;2023-09-18T03:25:19;10.40;;;5.28;;
74624;SDS011;63131;52.298;8.056;2023-09-18T03:27:44;11.55;;;5.35;;
74624;SDS011;63131;52.298;8.056;2023-09-18T03:30:10;11.23;;;4.93;;
74624;SDS011;63131;52.298;8.056;2023-09-18T03:32:37;11.40;;;4.68;;
74624;SDS011;63131;52.298;8.056;2023-09-18T03:35:03;9.70;;;4.55;;
74624;SDS011;63131;52.298;8.056;2023-09-18T03:37:29;9.75;;;4.50;;
74624;SDS011;63131;52.298;8.056;2023-09-18T03:39:54;10.65;;;5.05;;
74624;SDS011;63131;52.298;8.056;2023-09-18T03:42:20;11.07;;;4.97;;
74624;SDS011;63131;52.298;8.056;2023-09-18T03:44:46;9.95;;;4.50;;
74624;SDS011;63131;52.298;8.056;2023-09-18T03:47:11;10.52;;;4.72;;
74624;SDS011;63131;52.298;8.056;2023-09-18T03:49:36;9.13;;;4.72;;
74624;SDS011;63131;52.298;8.056;2023-09-18T03:52:02;9.02;;;5.05;;
74624;SDS011;63131;52.298;8.056;2023-09-18T03:54:27;9.73;;;4.93;;
74624;SDS011;63131;52.298;8.056;2023-09-18T03:56:53;11.48;;;5.05;;
74624;SDS011;63131;52.298;8.056;2023-09-18T03:59:18;12.10;;;5.30;;
74624;SDS011;63131;52.298;8.056;2023-09-18T04:01:44;9.88;;;4.88;;
74624;SDS011;63131;52.298;8.056;2023-09-18T04:04:10;9.18;;;4.50;;
74624;SDS011;63131;52.298;8.056;2023-09-18T04:06:36;10.27;;;5.30;;
74624;SDS011;63131;52.298;8.056;2023-09-18T04:09:02;10.73;;;4.40;;
74624;SDS011;63131;52.298;8.056;2023-09-18T04:11:28;11.60;;;4.97;;
74624;SDS011;63131;52.298;8.056;2023-09-18T04:13:58;9.45;;;4.53;;
74624;SDS011;63131;52.298;8.056;2023-09-18T04:16:24;12.25;;;5.03;;
74624;SDS011;63131;52.298;8.056;2023-09-18T04:18:50;11.68;;;5.10;;
74624;SDS011;63131;52.298;8.056;2023-09-18T04:21:15;11.10;;;5.00;;
74624;SDS011;63131;52.298;8.056;2023-09-18T04:23:41;9.85;;;5.10;;
74624;SDS011;63131;52.298;8.056;2023-09-18T04:26:06;11.82;;;4.85;;
74624;SDS011;63131;52.298;8.056;2023-09-18T04:28:32;10.23;;;4.70;;
74624;SDS011;63131;52.298;8.056;2023-09-18T04:30:57;9.18;;;4.47;;
74624;SDS011;63131;52.298;8.056;2023-09-18T04:33:22;12.13;;;4.90;;
74624;SDS011;63131;52.298;8.056;2023-09-18T04:35:48;10.77;;;5.35;;
74624;SDS011;63131;52.298;8.056;2023-09-18T04:38:13;11.15;;;5.05;;
74624;SDS011;63131;52.298;8.056;2023-09-18T04:40:42;10.60;;;4.80;;
74624;SDS011;63131;52.298;8.056;2023-09-18T04:43:07;11.63;;;4.82;;
74624;SDS011;63131;52.298;8.056;2023-09-18T04:45:33;10.60;;;4.85;;
74624;SDS011;63131;52.298;8.056;2023-09-18T04:47:58;9.95;;;4.68;;
74624;SDS011;63131;52.298;8.056;2023-09-18T04:50:24;9.50;;;4.57;;
74624;SDS011;63131;52.298;8.056;2023-09-18T04:52:51;8.93;;;4.75;;
74624;SDS011;63131;52.298;8.056;2023-09-18T04:55:17;9.80;;;4.32;;
74624;SDS011;63131;52.298;8.056;2023-09-18T04:57:42;10.07;;;4.32;;
74624;SDS011;63131;52.298;8.056;2023-09-18T05:00:08;10.25;;;4.35;;
74624;SDS011;63131;52.298;8.056;2023-09-18T05:02:35;9.07;;;4.15;;
74624;SDS011;63131;52.298;8.056;2023-09-18T05:05:00;10.18;;;4.80;;
74624;SDS011;63131;52.298;8.056;2023-09-18T05:07:26;10.23;;;4.68;;
74624;SDS011;63131;52.298;8.056;2023-09-18T05:09:52;10.18;;;4.57;;
74624;SDS011;63131;52.298;8.056;2023-09-18T05:12:17;10.27;;;5.03;;
74624;SDS011;63131;52.298;8.056;2023-09-18T05:14:43;8.73;;;4.18;;
74624;SDS011;63131;52.298;8.056;2023-09-18T05:17:09;10.23;;;5.75;;
74624;SDS011;63131;52.298;8.056;2023-09-18T05:19:37;9.05;;;3.95;;
74624;SDS011;63131;52.298;8.056;2023-09-18T05:22:02;9.98;;;4.75;;
74624;SDS011;63131;52.298;8.056;2023-09-18T05:24:28;8.70;;;4.25;;
74624;SDS011;63131;52.298;8.056;2023-09-18T05:26:54;11.13;;;3.97;;
74624;SDS011;63131;52.298;8.056;2023-09-18T05:29:20;12.15;;;5.63;;
74624;SDS011;63131;52.298;8.056;2023-09-18T05:31:45;9.55;;;4.55;;
74624;SDS011;63131;52.298;8.056;2023-09-18T05:34:11;9.45;;;3.88;;
74624;SDS011;63131;52.298;8.056;2023-09-18T05:36:39;10.27;;;4.95;;
74624;SDS011;63131;52.298;8.056;2023-09-18T05:39:05;9.85;;;4.82;;
74624;SDS011;63131;52.298;8.056;2023-09-18T05:41:35;11.38;;;4.65;;
74624;SDS011;63131;52.298;8.056;2023-09-18T05:44:01;8.88;;;4.55;;
74624;SDS011;63131;52.298;8.056;2023-09-18T05:46:46;9.07;;;4.28;;
74624;SDS011;63131;52.298;8.056;2023-09-18T05:49:11;9.63;;;4.30;;
74624;SDS011;63131;52.298;8.056;2023-09-18T05:51:37;8.85;;;3.92;;
74624;SDS011;63131;52.298;8.056;2023-09-18T05:54:02;10.93;;;4.38;;
74624;SDS011;63131;52.298;8.056;2023-09-18T05:56:28;10.38;;;4.32;;
74624;SDS011;63131;52.298;8.056;2023-09-18T05:58:54;10.02;;;4.35;;
74624;SDS011;63131;52.298;8.056;2023-09-18T06:01:20;12.00;;;4.68;;
74624;SDS011;63131;52.298;8.056;2023-09-18T06:03:45;9.43;;;4.18;;
74624;SDS011;63131;52.298;8.056;2023-09-18T06:06:11;10.35;;;3.95;;
74624;SDS011;63131;52.298;8.056;2023-09-18T06:08:36;9.80;;;3.63;;
74624;SDS011;63131;52.298;8.056;2023-09-18T06:11:01;8.15;;;3.70;;
74624;SDS011;63131;52.298;8.056;2023-09-18T06:13:27;9.50;;;3.50;;
74624;SDS011;63131;52.298;8.056;2023-09-18T06:15:53;8.45;;;3.63;;
74624;SDS011;63131;52.298;8.056;2023-09-18T06:18:19;8.93;;;3.70;;
74624;SDS011;63131;52.298;8.056;2023-09-18T06:20:46;11.02;;;3.78;;
74624;SDS011;63131;52.298;8.056;2023-09-18T06:23:11;9.23;;;3.65;;
74624;SDS011;63131;52.298;8.056;2023-09-18T06:25:37;7.80;;;3.05;;
74624;SDS011;63131;52.298;8.056;2023-09-18T06:28:03;9.27;;;3.97;;
74624;SDS011;63131;52.298;8.056;2023-09-18T06:30:29;8.50;;;3.75;;
74624;SDS011;63131;52.298;8.056;2023-09-18T06:32:56;8.23;;;3.10;;
74624;SDS011;63131;52.298;8.056;2023-09-18T06:35:21;10.65;;;3.63;;
74624;SDS011;63131;52.298;8.056;2023-09-18T06:37:47;8.68;;;3.25;;
74624;SDS011;63131;52.298;8.056;2023-09-18T06:40:13;9.38;;;3.38;;
74624;SDS011;63131;52.298;8.056;2023-09-18T06:42:38;9.40;;;3.28;;
74624;SDS011;63131;52.298;8.056;2023-09-18T06:45:04;10.82;;;3.10;;
74624;SDS011;63131;52.298;8.056;2023-09-18T06:47:32;10.40;;;3.90;;
74624;SDS011;63131;52.298;8.056;2023-09-18T06:49:58;8.15;;;3.50;;
74624;SDS011;63131;52.298;8.056;2023-09-18T06:52:25;9.43;;;3.75;;
74624;SDS011;63131;52.298;8.056;2023-09-18T06:54:51;11.63;;;4.55;;
74624;SDS011;63131;52.298;8.056;2023-09-18T06:57:17;10.10;;;3.55;;
74624;SDS011;63131;52.298;8.056;2023-09-18T06:59:42;10.20;;;4.22;;
74624;SDS011;63131;52.298;8.056;2023-09-18T07:02:08;7.85;;;3.13;;
74624;SDS011;63131;52.298;8.056;2023-09-18T07:04:33;10.50;;;3.78;;
74624;SDS011;63131;52.298;8.056;2023-09-18T07:06:58;10.38;;;3.45;;
74624;SDS011;63131;52.298;8.056;2023-09-18T07:09:24;9.77;;;4.03;;
74624;SDS011;63131;52.298;8.056;2023-09-18T07:11:50;7.95;;;3.15;;
74624;SDS011;63131;52.298;8.056;2023-09-18T07:14:16;9.13;;;2.90;;
74624;SDS011;63131;52.298;8.056;2023-09-18T07:16:41;9.70;;;3.33;;
74624;SDS011;63131;52.298;8.056;2023-09-18T07:19:07;9.85;;;3.00;;
74624;SDS011;63131;52.298;8.056;2023-09-18T07:21:36;9.38;;;2.72;;
74624;SDS011;63131;52.298;8.056;2023-09-18T07:24:02;9.43;;;3.08;;
74624;SDS011;63131;52.298;8.056;2023-09-18T07:26:28;7.65;;;2.72;;
74624;SDS011;63131;52.298;8.056;2023-09-18T07:28:53;7.85;;;2.65;;
74624;SDS011;63131;52.298;8.056;2023-09-18T07:31:19;8.98;;;3.35;;
74624;SDS011;63131;52.298;8.056;2023-09-18T07:33:44;8.25;;;2.80;;
74624;SDS011;63131;52.298;8.056;2023-09-18T07:36:09;9.00;;;2.80;;
74624;SDS011;63131;52.298;8.056;2023-09-18T07:38:35;12.07;;;3.60;;
74624;SDS011;63131;52.298;8.056;2023-09-18T07:41:01;10.65;;;3.20;;
74624;SDS011;63131;52.298;8.056;2023-09-18T07:43:27;10.55;;;2.75;;
74624;SDS011;63131;52.298;8.056;2023-09-18T07:45:52;11.20;;;2.88;;
74624;SDS011;63131;52.298;8.056;2023-09-18T07:48:18;8.38;;;2.55;;
74624;SDS011;63131;52.298;8.056;2023-09-18T07:50:45;9.68;;;2.72;;
74624;SDS011;63131;52.298;8.056;2023-09-18T07:53:10;8.48;;;2.70;;
74624;SDS011;63131;52.298;8.056;2023-09-18T07:55:36;9.07;;;2.83;;
74624;SDS011;63131;52.298;8.056;2023-09-18T07:58:01;9.73;;;2.72;;
74624;SDS011;63131;52.298;8.056;2023-09-18T08:00:28;10.57;;;2.97;;
74624;SDS011;63131;52.298;8.056;2023-09-18T08:02:54;12.57;;;2.58;;
74624;SDS011;63131;52.298;8.056;2023-09-18T08:05:25;9.27;;;2.50;;
74624;SDS011;63131;52.298;8.056;2023-09-18T08:07:53;8.18;;;2.40;;
74624;SDS011;63131;52.298;8.056;2023-09-18T08:10:22;10.95;;;2.80;;
74624;SDS011;63131;52.298;8.056;2023-09-18T08:12:51;10.23;;;2.35;;
74624;SDS011;63131;52.298;8.056;2023-09-18T08:15:18;7.65;;;2.28;;
74624;SDS011;63131;52.298;8.056;2023-09-18T08:17:47;11.73;;;2.97;;
74624;SDS011;63131;52.298;8.056;2023-09-18T08:20:14;10.77;;;2.42;;
74624;SDS011;63131;52.298;8.056;2023-09-18T08:22:40;11.32;;;2.25;;
74624;SDS011;63131;52.298;8.056;2023-09-18T08:25:07;10.50;;;2.42;;
74624;SDS011;63131;52.298;8.056;2023-09-18T08:27:36;10.25;;;2.55;;
74624;SDS011;63131;52.298;8.056;2023-09-18T08:30:05;9.75;;;2.28;;
74624;SDS011;63131;52.298;8.056;2023-09-18T08:32:31;10.23;;;2.30;;
74624;SDS011;63131;52.298;8.056;2023-09-18T08:34:58;6.70;;;2.10;;
74624;SDS011;63131;52.298;8.056;2023-09-18T08:37:26;8.77;;;2.28;;
74624;SDS011;63131;52.298;8.056;2023-09-18T08:39:52;7.30;;;2.00;;
74624;SDS011;63131;52.298;8.056;2023-09-18T08:42:17;13.98;;;3.60;;
74624;SDS011;63131;52.298;8.056;2023-09-18T08:44:43;7.68;;;2.22;;
74624;SDS011;63131;52.298;8.056;2023-09-18T08:47:10;7.53;;;2.38;;
74624;SDS011;63131;52.298;8.056;2023-09-18T08:49:37;6.97;;;2.22;;
74624;SDS011;63131;52.298;8.056;2023-09-18T08:52:03;9.82;;;2.03;;
74624;SDS011;63131;52.298;8.056;2023-09-18T08:54:30;10.60;;;2.33;;
74624;SDS011;63131;52.298;8.056;2023-09-18T08:56:55;6.82;;;2.55;;
74624;SDS011;63131;52.298;8.056;2023-09-18T08:59:21;8.43;;;2.28;;
74624;SDS011;63131;52.298;8.056;2023-09-18T09:01:47;10.32;;;2.53;;
74624;SDS011;63131;52.298;8.056;2023-09-18T09:04:12;9.80;;;2.60;;
74624;SDS011;63131;52.298;8.056;2023-09-18T09:06:38;6.63;;;2.75;;
74624;SDS011;63131;52.298;8.056;2023-09-18T09:09:03;8.40;;;2.53;;
74624;SDS011;63131;52.298;8.056;2023-09-18T09:11:30;8.45;;;2.28;;
74624;SDS011;63131;52.298;8.056;2023-09-18T09:14:12;8.00;;;2.00;;
74624;SDS011;63131;52.298;8.056;2023-09-18T09:16:49;8.93;;;2.33;;
74624;SDS011;63131;52.298;8.056;2023-09-18T09:19:18;6.38;;;1.80;;
74624;SDS011;63131;52.298;8.056;2023-09-18T09:21:44;7.63;;;2.22;;
74624;SDS011;63131;52.298;8.056;2023-09-18T09:24:10;6.22;;;2.25;;
74624;SDS011;63131;52.298;8.056;2023-09-18T09:26:42;7.25;;;2.40;;
74624;SDS011;63131;52.298;8.056;2023-09-18T09:29:20;9.70;;;2.70;;
74624;SDS011;63131;52.298;8.056;2023-09-18T09:31:46;9.35;;;2.30;;
74624;SDS011;63131;52.298;8.056;2023-09-18T09:34:12;6.63;;;2.17;;
74624;SDS011;63131;52.298;8.056;2023-09-18T09:36:53;8.73;;;2.22;;
74624;SDS011;63131;52.298;8.056;2023-09-18T09:39:19;10.65;;;2.63;;
74624;SDS011;63131;52.298;8.056;2023-09-18T09:41:48;7.25;;;2.38;;
74624;SDS011;63131;52.298;8.056;2023-09-18T09:44:14;7.05;;;2.60;;
74624;SDS011;63131;52.298;8.056;2023-09-18T09:46:46;7.18;;;2.10;;
74624;SDS011;63131;52.298;8.056;2023-09-18T09:49:13;7.40;;;2.20;;
74624;SDS011;63131;52.298;8.056;2023-09-18T09:51:40;9.27;;;2.75;;
74624;SDS011;63131;52.298;8.056;2023-09-18T09:54:06;8.80;;;2.30;;
74624;SDS011;63131;52.298;8.056;2023-09-18T09:56:51;9.20;;;2.28;;
74624;SDS011;63131;52.298;8.056;2023-09-18T09:59:16;7.00;;;2.40;;
74624;SDS011;63131;52.298;8.056;2023-09-18T10:01:47;7.53;;;2.35;;
74624;SDS011;63131;52.298;8.056;2023-09-18T10:04:14;8.35;;;2.85;;
74624;SDS011;63131;52.298;8.056;2023-09-18T10:06:45;8.52;;;2.40;;
74624;SDS011;63131;52.298;8.056;2023-09-18T10:09:15;6.43;;;2.15;;
74624;SDS011;63131;52.298;8.056;2023-09-18T10:11:43;8.25;;;2.70;;
74624;SDS011;63131;52.298;8.056;2023-09-18T10:14:17;8.85;;;2.80;;
74624;SDS011;63131;52.298;8.056;2023-09-18T10:16:45;6.70;;;2.30;;
74624;SDS011;63131;52.298;8.056;2023-09-18T10:19:27;8.02;;;2.53;;
74624;SDS011;63131;52.298;8.056;2023-09-18T10:22:01;7.75;;;2.47;;
74624;SDS011;63131;52.298;8.056;2023-09-18T10:24:34;9.68;;;2.90;;
74624;SDS011;63131;52.298;8.056;2023-09-18T10:27:03;8.50;;;2.63;;
74624;SDS011;63131;52.298;8.056;2023-09-18T10:29:31;7.07;;;2.22;;
74624;SDS011;63131;52.298;8.056;2023-09-18T10:31:58;7.43;;;2.42;;
74624;SDS011;63131;52.298;8.056;2023-09-18T10:34:24;6.53;;;2.47;;
74624;SDS011;63131;52.298;8.056;2023-09-18T10:36:50;8.73;;;2.90;;
74624;SDS011;63131;52.298;8.056;2023-09-18T10:39:17;7.90;;;2.67;;
74624;SDS011;63131;52.298;8.056;2023-09-18T10:41:45;9.38;;;2.70;;
74624;SDS011;63131;52.298;8.056;2023-09-18T10:44:12;6.63;;;2.65;;
74624;SDS011;63131;52.298;8.056;2023-09-18T10:46:39;7.70;;;2.97;;
74624;SDS011;63131;52.298;8.056;2023-09-18T10:49:04;6.47;;;2.60;;
74624;SDS011;63131;52.298;8.056;2023-09-18T10:51:30;7.00;;;2.97;;
74624;SDS011;63131;52.298;8.056;2023-09-18T10:53:57;7.65;;;2.30;;
74624;SDS011;63131;52.298;8.056;2023-09-18T10:56:23;5.75;;;2.47;;
74624;SDS011;63131;52.298;8.056;2023-09-18T10:59:01;6.50;;;2.20;;
74624;SDS011;63131;52.298;8.056;2023-09-18T11:01:29;8.45;;;2.55;;
74624;SDS011;63131;52.298;8.056;2023-09-18T11:03:57;7.57;;;2.25;;
74624;SDS011;63131;52.298;8.056;2023-09-18T11:06:26;5.82;;;2.40;;
74624;SDS011;63131;52.298;8.056;2023-09-18T11:08:58;7.32;;;3.03;;
74624;SDS011;63131;52.298;8.056;2023-09-18T11:11:26;7.07;;;2.80;;
74624;SDS011;63131;52.298;8.056;2023-09-18T11:13:55;5.85;;;2.25;;
74624;SDS011;63131;52.298;8.056;2023-09-18T11:18:53;6.65;;;2.38;;
74624;SDS011;63131;52.298;8.056;2023-09-18T11:21:30;9.60;;;2.28;;
74624;SDS011;63131;52.298;8.056;2023-09-18T11:24:01;8.25;;;2.55;;
74624;SDS011;63131;52.298;8.056;2023-09-18T11:26:36;5.25;;;2.13;;
74624;SDS011;63131;52.298;8.056;2023-09-18T11:29:05;6.40;;;2.10;;
74624;SDS011;63131;52.298;8.056;2023-09-18T11:31:47;5.35;;;2.10;;
74624;SDS011;63131;52.298;8.056;2023-09-18T11:34:14;6.53;;;2.00;;
74624;SDS011;63131;52.298;8.056;2023-09-18T11:37:19;5.95;;;2.00;;
74624;SDS011;63131;52.298;8.056;2023-09-18T11:39:48;6.22;;;1.73;;
74624;SDS011;63131;52.298;8.056;2023-09-18T11:42:18;6.25;;;2.25;;
74624;SDS011;63131;52.298;8.056;2023-09-18T11:44:47;5.78;;;1.98;;
74624;SDS011;63131;52.298;8.056;2023-09-18T11:47:13;7.45;;;2.20;;
74624;SDS011;63131;52.298;8.056;2023-09-18T11:49:53;5.45;;;1.80;;
74624;SDS011;63131;52.298;8.056;2023-09-18T11:52:21;8.80;;;3.60;;
74624;SDS011;63131;52.298;8.056;2023-09-18T11:54:47;6.47;;;2.10;;
74624;SDS011;63131;52.298;8.056;2023-09-18T11:57:13;4.43;;;1.65;;
74624;SDS011;63131;52.298;8.056;2023-09-18T11:59:40;5.45;;;2.00;;
74624;SDS011;63131;52.298;8.056;2023-09-18T12:02:12;5.53;;;1.90;;
74624;SDS011;63131;52.298;8.056;2023-09-18T12:05:04;4.72;;;1.63;;
74624;SDS011;63131;52.298;8.056;2023-09-18T12:07:31;6.97;;;1.67;;
74624;SDS011;63131;52.298;8.056;2023-09-18T12:09:56;7.47;;;1.75;;
74624;SDS011;63131;52.298;8.056;2023-09-18T12:12:22;5.38;;;1.70;;
74624;SDS011;63131;52.298;8.056;2023-09-18T12:14:47;6.32;;;1.98;;
74624;SDS011;63131;52.298;8.056;2023-09-18T12:17:16;5.28;;;1.45;;
74624;SDS011;63131;52.298;8.056;2023-09-18T12:19:53;5.50;;;1.52;;
74624;SDS011;63131;52.298;8.056;2023-09-18T12:22:23;4.72;;;1.15;;
74624;SDS011;63131;52.298;8.056;2023-09-18T12:24:52;5.70;;;1.55;;
74624;SDS011;63131;52.298;8.056;2023-09-18T12:27:17;4.18;;;1.23;;
74624;SDS011;63131;52.298;8.056;2023-09-18T12:29:43;3.88;;;1.30;;
74624;SDS011;63131;52.298;8.056;2023-09-18T12:32:18;5.57;;;1.85;;
74624;SDS011;63131;52.298;8.056;2023-09-18T12:34:44;5.07;;;1.30;;
74624;SDS011;63131;52.298;8.056;2023-09-18T12:37:11;4.72;;;1.50;;
74624;SDS011;63131;52.298;8.056;2023-09-18T12:39:37;5.20;;;1.40;;
74624;SDS011;63131;52.298;8.056;2023-09-18T12:42:03;4.80;;;1.40;;
74624;SDS011;63131;52.298;8.056;2023-09-18T12:44:29;5.05;;;2.13;;
74624;SDS011;63131;52.298;8.056;2023-09-18T12:46:55;5.72;;;1.73;;
74624;SDS011;63131;52.298;8.056;2023-09-18T12:49:21;4.85;;;1.40;;
74624;SDS011;63131;52.298;8.056;2023-09-18T12:51:59;5.97;;;1.52;;
74624;SDS011;63131;52.298;8.056;2023-09-18T12:57:07;8.18;;;1.55;;
74624;SDS011;63131;52.298;8.056;2023-09-18T12:59:35;3.97;;;1.40;;
74624;SDS011;63131;52.298;8.056;2023-09-18T13:02:02;4.82;;;1.38;;
74624;SDS011;63131;52.298;8.056;2023-09-18T13:04:30;6.15;;;1.35;;
74624;SDS011;63131;52.298;8.056;2023-09-18T13:07:05;8.07;;;2.63;;
74624;SDS011;63131;52.298;8.056;2023-09-18T13:09:33;4.78;;;1.65;;
74624;SDS011;63131;52.298;8.056;2023-09-18T13:12:00;6.75;;;1.83;;
74624;SDS011;63131;52.298;8.056;2023-09-18T13:14:26;5.68;;;1.70;;
74624;SDS011;63131;52.298;8.056;2023-09-18T13:16:52;6.30;;;1.90;;
74624;SDS011;63131;52.298;8.056;2023-09-18T13:19:17;6.07;;;1.63;;
74624;SDS011;63131;52.298;8.056;2023-09-18T13:21:47;4.75;;;1.50;;
74624;SDS011;63131;52.298;8.056;2023-09-18T13:26:53;4.72;;;1.52;;
74624;SDS011;63131;52.298;8.056;2023-09-18T13:29:19;5.30;;;1.80;;
74624;SDS011;63131;52.298;8.056;2023-09-18T13:31:46;4.35;;;1.70;;
74624;SDS011;63131;52.298;8.056;2023-09-18T13:34:11;4.82;;;1.70;;
74624;SDS011;63131;52.298;8.056;2023-09-18T13:36:37;6.40;;;1.63;;
74624;SDS011;63131;52.298;8.056;2023-09-18T13:39:03;5.88;;;1.70;;
74624;SDS011;63131;52.298;8.056;2023-09-18T13:41:28;6.20;;;1.70;;
74624;SDS011;63131;52.298;8.056;2023-09-18T13:43:54;5.03;;;1.50;;
74624;SDS011;63131;52.298;8.056;2023-09-18T13:46:20;5.10;;;1.58;;
74624;SDS011;63131;52.298;8.056;2023-09-18T13:48:46;6.43;;;1.95;;
74624;SDS011;63131;52.298;8.056;2023-09-18T13:51:12;3.67;;;1.40;;
74624;SDS011;63131;52.298;8.056;2023-09-18T13:53:39;6.47;;;2.20;;
74624;SDS011;63131;52.298;8.056;2023-09-18T13:56:06;5.75;;;1.50;;
74624;SDS011;63131;52.298;8.056;2023-09-18T13:58:34;5.53;;;1.70;;
74624;SDS011;63131;52.298;8.056;2023-09-18T14:01:02;5.43;;;1.83;;
74624;SDS011;63131;52.298;8.056;2023-09-18T14:03:27;5.22;;;1.60;;
74624;SDS011;63131;52.298;8.056;2023-09-18T14:05:53;8.02;;;1.95;;
74624;SDS011;63131;52.298;8.056;2023-09-18T14:08:18;5.85;;;2.03;;
74624;SDS011;63131;52.298;8.056;2023-09-18T14:10:44;5.03;;;1.65;;
74624;SDS011;63131;52.298;8.056;2023-09-18T14:13:09;7.18;;;1.77;;
74624;SDS011;63131;52.298;8.056;2023-09-18T14:15:35;6.80;;;2.00;;
74624;SDS011;63131;52.298;8.056;2023-09-18T14:18:02;5.85;;;2.00;;
74624;SDS011;63131;52.298;8.056;2023-09-18T14:20:28;5.72;;;2.00;;
74624;SDS011;63131;52.298;8.056;2023-09-18T14:22:53;5.57;;;1.83;;
74624;SDS011;63131;52.298;8.056;2023-09-18T14:25:19;8.32;;;2.30;;
74624;SDS011;63131;52.298;8.056;2023-09-18T14:27:45;6.10;;;1.92;;
74624;SDS011;63131;52.298;8.056;2023-09-18T14:30:11;7.47;;;1.90;;
74624;SDS011;63131;52.298;8.056;2023-09-18T14:32:38;5.03;;;1.70;;
74624;SDS011;63131;52.298;8.056;2023-09-18T14:35:04;4.18;;;1.65;;
74624;SDS011;63131;52.298;8.056;2023-09-18T14:37:33;6.97;;;1.80;;
74624;SDS011;63131;52.298;8.056;2023-09-18T14:39:59;6.05;;;1.73;;
74624;SDS011;63131;52.298;8.056;2023-09-18T14:42:24;5.22;;;1.88;;
74624;SDS011;63131;52.298;8.056;2023-09-18T14:44:49;6.47;;;2.00;;
74624;SDS011;63131;52.298;8.056;2023-09-18T14:47:15;8.80;;;2.08;;
74624;SDS011;63131;52.298;8.056;2023-09-18T14:49:41;5.68;;;1.90;;
74624;SDS011;63131;52.298;8.056;2023-09-18T14:52:08;5.35;;;1.63;;